Time;durP1;ratioP1;P1;durP2;ratioP2;P2;SDS_P1;SDS_P2;PMS_P1;PMS_P2;Temp;Humidity;BMP_temperature;BMP_pressure;BME280_temperature;BME280_humidity;BME280_pressure;Samples;Min_cycle;Max_cycle;Signal;HPM_P1;HPM_P2
2022/10/04 00:01:57;;;;;;;18.70;7.97;;;;;;;11.13;100.00;102190.41;5136330;27;20023;-86
2022/10/04 00:04:28;;;;;;;16.35;7.13;;;;;;;11.13;100.00;102192.25;5146647;27;20090;-85
2022/10/04 00:06:59;;;;;;;12.00;7.43;;;;;;;11.13;100.00;102190.41;5136507;27;20094;-86
2022/10/04 00:09:35;;;;;;;15.38;7.72;;;;;;;11.10;100.00;102193.50;5136698;27;20138;-86
2022/10/04 00:12:03;;;;;;;19.00;7.50;;;;;;;11.10;100.00;102189.91;5136336;27;20125;-85
2022/10/04 00:14:36;;;;;;;18.98;7.90;;;;;;;11.09;100.00;102185.50;5155301;27;20026;-86
2022/10/04 00:17:13;;;;;;;18.95;7.57;;;;;;;11.06;100.00;102175.88;5136956;27;20506;-86
2022/10/04 00:19:45;;;;;;;17.45;7.53;;;;;;;11.06;100.00;102181.31;5136927;27;20019;-86
2022/10/04 00:22:17;;;;;;;15.30;7.57;;;;;;;11.01;100.00;102178.28;5137552;27;20034;-86
2022/10/04 00:25:07;;;;;;;13.63;7.17;;;;;;;10.99;100.00;102175.75;5140489;27;20155;-86
2022/10/04 00:27:35;;;;;;;15.57;7.30;;;;;;;10.96;100.00;102172.59;5159804;27;20034;-86
2022/10/04 00:30:00;;;;;;;17.48;7.57;;;;;;;10.89;100.00;102172.47;5140847;27;20083;-86
2022/10/04 00:32:27;;;;;;;18.03;7.60;;;;;;;10.83;100.00;102157.75;5140980;27;20038;-86
2022/10/04 00:34:53;;;;;;;17.08;7.68;;;;;;;10.79;100.00;102161.03;5140682;27;20027;-86
2022/10/04 00:37:21;;;;;;;15.07;7.03;;;;;;;10.74;100.00;102158.88;5140819;27;20019;-86
2022/10/04 00:40:00;;;;;;;15.98;7.85;;;;;;;10.68;100.00;102157.72;5139958;27;20030;-87
2022/10/04 00:42:48;;;;;;;18.70;7.90;;;;;;;10.66;100.00;102157.09;5140706;27;20485;-86
2022/10/04 00:45:40;;;;;;;15.63;7.53;;;;;;;10.62;100.00;102160.34;5101880;27;20038;-86
2022/10/04 00:48:31;;;;;;;15.32;7.78;;;;;;;10.64;100.00;102166.44;5140538;27;20033;-86
2022/10/04 00:51:06;;;;;;;19.52;8.98;;;;;;;10.62;100.00;102165.78;5140202;27;20087;-86
2022/10/04 00:53:51;;;;;;;15.38;8.02;;;;;;;10.60;100.00;102162.41;5140172;27;20062;-86
2022/10/04 00:56:42;;;;;;;16.73;8.43;;;;;;;10.57;100.00;102158.19;5140083;27;20539;-86
2022/10/04 00:59:26;;;;;;;15.88;8.13;;;;;;;10.51;100.00;102158.91;5140287;27;20019;-86
2022/10/04 01:01:59;;;;;;;12.95;7.95;;;;;;;10.48;100.00;102151.13;5140232;27;20033;-86
2022/10/04 01:04:30;;;;;;;13.15;8.30;;;;;;;10.40;100.00;102149.34;5158311;27;20105;-86
2022/10/04 01:06:58;;;;;;;19.65;8.27;;;;;;;10.34;100.00;102136.50;5139847;27;20061;-85
2022/10/04 01:09:25;;;;;;;18.97;8.40;;;;;;;10.29;100.00;102134.31;5139772;27;20027;-86
2022/10/04 01:12:23;;;;;;;15.18;8.25;;;;;;;10.29;100.00;102128.03;5122750;27;20058;-88
2022/10/04 01:15:31;;;;;;;18.15;8.60;;;;;;;10.26;100.00;102122.97;5139986;27;20022;-87
2022/10/04 01:18:34;;;;;;;14.70;8.40;;;;;;;10.23;100.00;102115.19;5102832;27;20485;-88
2022/10/04 01:21:30;;;;;;;;;;;;;;;;;;;;;
2022/10/04 01:23:58;;;;;;;15.73;9.03;;;;;;;10.26;100.00;102122.97;5157957;27;20032;-88
2022/10/04 01:26:37;;;;;;;18.25;8.32;;;;;;;10.24;100.00;102120.44;5139588;27;20079;-88
2022/10/04 01:29:11;;;;;;;20.15;9.75;;;;;;;10.19;100.00;102115.56;5139891;27;20061;-88
2022/10/04 01:31:45;;;;;;;21.80;9.13;;;;;;;10.11;100.00;102104.81;5140048;27;20050;-87
2022/10/04 01:34:19;;;;;;;19.23;8.98;;;;;;;10.07;100.00;102099.91;5138479;27;20068;-88
2022/10/04 01:36:56;;;;;;;;;;;;;;;;;;;;;
2022/10/04 01:39:30;;;;;;;18.95;9.27;;;;;;;10.09;100.00;102108.72;5159015;27;20037;-88
2022/10/04 01:42:39;;;;;;;17.02;9.63;;;;;;;10.08;100.00;102109.72;5139251;27;20118;-88
2022/10/04 01:45:16;;;;;;;15.23;8.55;;;;;;;9.99;100.00;102101.66;5139124;27;20034;-88
2022/10/04 01:48:42;;;;;;;17.77;9.23;;;;;;;10.00;100.00;102083.53;5139648;27;20038;-88
2022/10/04 01:51:27;;;;;;;;;;;;;;;;;;;;;
2022/10/04 01:54:31;;;;;;;;;;;;;;;;;;;;;
2022/10/04 01:57:04;;;;;;;15.82;9.57;;;;;;;10.10;100.00;102105.81;5154452;27;20381;-87
2022/10/04 01:59:43;;;;;;;18.05;9.68;;;;;;;10.05;100.00;102096.53;5138839;27;20079;-88
2022/10/04 02:02:54;;;;;;;18.48;9.73;;;;;;;10.09;100.00;102103.28;5138605;27;20456;-88
2022/10/04 02:05:57;;;;;;;16.73;9.23;;;;;;;10.01;100.00;102094.19;5129575;27;20049;-88
2022/10/04 02:08:32;;;;;;;18.95;9.07;;;;;;;9.90;100.00;102086.47;5131050;27;20046;-88
2022/10/04 02:11:10;;;;;;;17.80;9.52;;;;;;;9.84;100.00;102088.03;5139035;27;20119;-88
2022/10/04 02:13:42;;;;;;;18.23;9.50;;;;;;;9.82;100.00;102087.38;5139532;27;20030;-88
2022/10/04 02:16:20;;;;;;;23.42;10.05;;;;;;;9.69;100.00;102073.56;5138816;27;20458;-88
2022/10/04 02:18:46;;;;;;;22.30;9.77;;;;;;;9.61;100.00;102062.78;5138310;27;20049;-88
2022/10/04 02:21:28;;;;;;;19.90;10.60;;;;;;;9.54;100.00;102064.53;5138120;27;20394;-88
2022/10/04 02:23:59;;;;;;;16.60;9.98;;;;;;;9.51;100.00;102060.31;5138451;27;20030;-87
2022/10/04 02:26:26;;;;;;;20.63;10.77;;;;;;;9.43;100.00;102057.63;5138823;27;20031;-88
2022/10/04 02:28:51;;;;;;;26.10;10.90;;;;;;;9.39;100.00;102050.88;5156852;27;20019;-88
2022/10/04 02:34:05;;;;;;;20.85;10.55;;;;;;;9.29;100.00;102041.13;5157556;27;20107;-88
2022/10/04 02:36:39;;;;;;;20.73;10.63;;;;;;;9.29;100.00;102043.00;5157303;27;20037;-87
2022/10/04 02:39:14;;;;;;;17.55;10.38;;;;;;;9.24;100.00;102037.25;5138948;27;20034;-88
2022/10/04 02:42:32;;;;;;;25.08;10.75;;;;;;;9.13;100.00;102024.97;5138739;27;20474;-88
2022/10/04 02:45:31;;;;;;;21.88;10.60;;;;;;;9.13;100.00;102033.09;5068605;27;20577;-88
2022/10/04 02:48:27;;;;;;;22.83;10.88;;;;;;;9.09;100.00;102026.34;5122511;27;20042;-88
2022/10/04 02:50:58;;;;;;;29.90;10.40;;;;;;;8.99;100.00;102007.63;5138185;27;20030;-88
2022/10/04 02:53:28;;;;;;;18.70;10.63;;;;;;;8.96;100.00;101997.13;5138744;27;20095;-87
2022/10/04 02:55:55;;;;;;;22.20;10.95;;;;;;;8.95;100.00;101996.28;5137603;27;20117;-88
2022/10/04 02:58:23;;;;;;;20.40;11.52;;;;;;;8.92;100.00;101988.53;5155973;27;20035;-88
2022/10/04 03:00:56;;;;;;;21.45;11.15;;;;;;;8.97;100.00;101989.88;5137575;27;20027;-88
2022/10/04 03:03:45;;;;;;;23.93;12.20;;;;;;;8.90;100.00;101992.41;5137782;27;20028;-88
2022/10/04 03:06:18;;;;;;;24.10;11.27;;;;;;;8.85;100.00;101970.47;5137270;27;20139;-88
2022/10/04 03:08:49;;;;;;;22.42;11.82;;;;;;;8.87;100.00;101979.25;5137296;27;20019;-87
2022/10/04 03:11:19;;;;;;;29.98;12.70;;;;;;;8.81;100.00;101972.66;5137841;27;20026;-87
2022/10/04 03:13:50;;;;;;;22.40;12.20;;;;;;;8.78;100.00;101983.84;5137809;27;20117;-87
2022/10/04 03:16:19;;;;;;;23.92;13.10;;;;;;;8.75;100.00;101978.78;5137823;27;20157;-88
2022/10/04 03:18:51;;;;;;;21.42;13.05;;;;;;;8.73;100.00;101978.13;5137521;27;20072;-88
2022/10/04 03:21:19;;;;;;;22.90;12.93;;;;;;;8.75;100.00;101989.59;5155862;27;20030;-88
2022/10/04 03:23:54;;;;;;;29.40;12.27;;;;;;;8.68;100.00;101975.94;5137031;27;20039;-88
2022/10/04 03:26:41;;;;;;;20.13;13.20;;;;;;;8.63;100.00;101972.06;5137585;27;20087;-87
2022/10/04 03:29:10;;;;;;;24.17;11.70;;;;;;;8.61;100.00;101974.97;5155552;27;20429;-87
2022/10/04 03:31:57;;;;;;;22.52;12.65;;;;;;;8.55;100.00;101976.50;5155794;27;20035;-87
2022/10/04 03:34:33;;;;;;;25.98;12.15;;;;;;;8.59;100.00;101976.97;5138281;27;20431;-88
2022/10/04 03:36:59;;;;;;;28.27;13.07;;;;;;;8.51;100.00;101967.03;5155463;27;20026;-87
2022/10/04 03:39:37;;;;;;;25.73;12.10;;;;;;;8.52;100.00;101965.16;5136887;27;20054;-87
2022/10/04 03:42:33;;;;;;;25.42;11.38;;;;;;;8.53;100.00;101966.88;5137399;27;20023;-88
2022/10/04 03:45:06;;;;;;;25.08;11.85;;;;;;;8.49;100.00;101960.97;5135085;27;20058;-87
2022/10/04 03:47:41;;;;;;;21.75;12.25;;;;;;;8.43;100.00;101956.22;5137331;27;20543;-87
2022/10/04 03:50:32;;;;;;;25.15;11.70;;;;;;;8.42;100.00;101954.53;5136625;27;20404;-87
2022/10/04 03:53:07;;;;;;;24.85;11.30;;;;;;;8.39;100.00;101955.72;5137091;27;20026;-87
2022/10/04 03:55:43;;;;;;;22.73;11.50;;;;;;;8.34;100.00;101947.28;5137185;27;20411;-87
2022/10/04 03:58:16;;;;;;;25.90;11.73;;;;;;;8.31;100.00;101941.38;5136254;27;20035;-87
2022/10/04 04:01:16;;;;;;;24.73;11.68;;;;;;;8.29;100.00;101935.31;5137683;27;20026;-87
2022/10/04 04:07:11;;;;;;;19.23;10.88;;;;;;;8.25;100.00;101941.06;5154958;27;20051;-87
2022/10/04 04:09:43;;;;;;;25.00;11.32;;;;;;;8.29;100.00;101944.25;5137090;27;20083;-88
2022/10/04 04:12:14;;;;;;;19.20;11.13;;;;;;;8.20;100.00;101940.72;5136780;27;20027;-88
2022/10/04 04:14:44;;;;;;;21.98;11.00;;;;;;;8.22;100.00;101944.13;5136452;27;20363;-88
2022/10/04 04:17:42;;;;;;;20.17;12.25;;;;;;;8.21;100.00;101945.13;5136525;27;20031;-88
2022/10/04 04:20:38;;;;;;;26.75;11.82;;;;;;;8.18;100.00;101940.06;5136903;27;20019;-87
2022/10/04 04:26:16;;;;;;;24.10;11.25;;;;;;;8.23;100.00;101955.75;5155130;27;20041;-87
2022/10/04 04:28:47;;;;;;;18.08;11.55;;;;;;;8.19;100.00;101957.13;5136175;27;20022;-87
2022/10/04 04:31:22;;;;;;;28.63;11.55;;;;;;;8.15;100.00;101950.38;5120358;27;20378;-87
2022/10/04 04:34:03;;;;;;;22.45;10.90;;;;;;;8.18;100.00;101959.00;5136101;27;20090;-87
2022/10/04 04:36:46;;;;;;;21.40;11.07;;;;;;;8.11;100.00;101943.66;5154857;27;20027;-87
2022/10/04 04:42:48;;;;;;;19.35;10.65;;;;;;;8.06;100.00;101953.09;5154875;27;20031;-87
2022/10/04 04:45:22;;;;;;;21.67;10.88;;;;;;;8.00;100.00;101932.19;5154846;27;20470;-87
2022/10/04 04:47:52;;;;;;;22.27;10.63;;;;;;;8.00;100.00;101942.13;5137238;27;20031;-86
2022/10/04 04:50:23;;;;;;;21.95;11.15;;;;;;;8.02;100.00;101945.50;5136571;27;20071;-86
2022/10/04 04:53:03;;;;;;;21.17;10.70;;;;;;;8.02;100.00;101934.69;5136702;27;20030;-87
2022/10/04 04:55:35;;;;;;;21.17;10.55;;;;;;;7.97;100.00;101924.41;5136645;27;20080;-88
2022/10/04 04:58:03;;;;;;;21.88;11.55;;;;;;;7.97;100.00;101923.53;5136557;27;20041;-88
2022/10/04 05:00:37;;;;;;;21.90;11.52;;;;;;;7.95;100.00;101918.31;5136535;27;20027;-87
2022/10/04 05:03:16;;;;;;;29.48;11.70;;;;;;;7.92;100.00;101915.97;5154562;27;20023;-87
2022/10/04 05:05:46;;;;;;;28.48;11.65;;;;;;;7.95;100.00;101920.19;5136116;27;20138;-86
2022/10/04 05:08:23;;;;;;;26.98;10.88;;;;;;;7.98;100.00;101933.34;5136332;27;20141;-87
2022/10/04 05:11:28;;;;;;;21.05;11.27;;;;;;;7.97;100.00;101939.75;5159032;27;20038;-87
2022/10/04 05:14:20;;;;;;;18.42;10.82;;;;;;;7.89;100.00;101927.13;5158463;27;20034;-86
2022/10/04 05:16:52;;;;;;;26.23;9.95;;;;;;;7.88;100.00;101928.97;5139875;27;20083;-86
2022/10/04 05:19:28;;;;;;;19.58;9.35;;;;;;;7.89;100.00;101924.41;5139357;27;20049;-87
2022/10/04 05:21:56;;;;;;;21.98;9.73;;;;;;;7.85;100.00;101923.94;5139613;27;20121;-86
2022/10/04 05:24:32;;;;;;;22.80;9.90;;;;;;;7.92;100.00;101940.28;5139246;27;20030;-86
2022/10/04 05:27:07;;;;;;;18.00;9.80;;;;;;;7.83;100.00;101941.31;5140161;27;20374;-86
2022/10/04 05:29:37;;;;;;;20.52;8.93;;;;;;;7.80;100.00;101934.38;5139587;27;20022;-86
2022/10/04 05:32:41;;;;;;;14.63;8.98;;;;;;;7.78;100.00;101930.16;5139684;27;20137;-86
2022/10/04 05:35:22;;;;;;;20.30;8.73;;;;;;;7.74;100.00;101924.25;5139034;27;20026;-85
2022/10/04 05:38:09;;;;;;;18.48;8.60;;;;;;;7.77;100.00;101931.19;5139166;27;20026;-85
2022/10/04 05:41:13;;;;;;;27.38;8.73;;;;;;;7.75;100.00;101934.06;5139653;27;20027;-86
2022/10/04 05:43:52;;;;;;;20.90;7.80;;;;;;;7.70;100.00;101937.25;5155372;27;20038;-85
2022/10/04 05:46:34;;;;;;;20.33;7.85;;;;;;;7.75;100.00;101941.31;5139282;27;20023;-85
2022/10/04 05:49:13;;;;;;;24.92;8.73;;;;;;;7.73;100.00;101936.06;5158225;27;20049;-86
2022/10/04 05:51:59;;;;;;;21.38;8.18;;;;;;;7.78;100.00;101944.53;5138760;27;20023;-85
2022/10/04 05:54:31;;;;;;;16.17;8.35;;;;;;;7.80;100.00;101947.91;5139266;27;20050;-85
2022/10/04 05:57:15;;;;;;;20.48;8.80;;;;;;;7.83;100.00;101958.34;5139218;27;20026;-85
2022/10/04 06:00:00;;;;;;;14.73;7.90;;;;;;;7.87;100.00;101956.19;5138829;27;20030;-86
2022/10/04 06:02:58;;;;;;;16.42;7.65;;;;;;;7.82;100.00;101951.25;5157314;27;20107;-86
2022/10/04 06:05:56;;;;;;;13.20;7.20;;;;;;;7.87;100.00;101939.97;5138914;27;20117;-85
2022/10/04 06:08:35;;;;;;;18.10;8.25;;;;;;;7.96;100.00;101944.34;5128518;27;20050;-84
2022/10/04 06:11:26;;;;;;;15.18;7.10;;;;;;;8.04;100.00;101948.88;5156665;27;20023;-84
2022/10/04 06:14:00;;;;;;;17.50;7.53;;;;;;;8.10;100.00;101956.28;5138511;27;20026;-85
2022/10/04 06:16:47;;;;;;;23.63;7.50;;;;;;;8.13;100.00;101949.72;5138082;27;20052;-84
2022/10/04 06:19:41;;;;;;;15.98;7.07;;;;;;;8.25;100.00;101951.03;5157153;27;20026;-86
2022/10/04 06:22:22;;;;;;;14.82;6.63;;;;;;;8.23;100.00;101948.50;5136419;27;20371;-87
2022/10/04 06:31:52;;;;;;;10.20;6.40;;;;;;;8.50;100.00;101959.09;5087263;27;20038;-86
2022/10/04 06:34:35;;;;;;;12.70;6.38;;;;;;;8.48;100.00;101950.31;5137613;27;20046;-85
2022/10/04 06:37:33;;;;;;;13.40;5.88;;;;;;;8.59;100.00;101956.19;5138174;27;20458;-85
2022/10/04 06:40:25;;;;;;;22.60;7.20;;;;;;;8.60;100.00;101936.22;5138083;27;20125;-86
2022/10/04 06:43:21;;;;;;;12.32;5.80;;;;;;;8.71;100.00;101947.69;5138537;27;20038;-85
2022/10/04 06:53:15;;;;;;;13.90;5.35;;;;;;;8.67;100.00;101930.13;5156144;27;20034;-84
2022/10/04 06:56:03;;;;;;;12.50;5.53;;;;;;;8.66;100.00;101945.50;5054817;28;20059;-85
2022/10/04 06:58:58;;;;;;;10.18;5.40;;;;;;;8.67;100.00;101951.78;5071609;28;20025;-84
2022/10/04 07:01:30;;;;;;;16.15;5.68;;;;;;;8.56;100.00;101947.56;5123482;27;20031;-85
2022/10/04 07:04:35;;;;;;;13.13;5.90;;;;;;;8.62;100.00;101954.97;5137509;27;20122;-85
2022/10/04 07:10:15;;;;;;;14.88;5.38;;;;;;;8.60;100.00;101941.63;5156079;27;20056;-85
2022/10/04 07:12:48;;;;;;;11.65;5.63;;;;;;;8.59;100.00;101928.28;5138086;27;20050;-84
2022/10/04 07:15:23;;;;;;;12.82;5.88;;;;;;;8.65;100.00;101937.56;5137635;27;20109;-83
2022/10/04 07:17:52;;;;;;;12.88;5.68;;;;;;;8.64;100.00;101919.66;5137409;27;20026;-84
2022/10/04 07:20:32;;;;;;;16.13;5.22;;;;;;;8.72;100.00;101930.44;5137466;27;20068;-84
2022/10/04 07:23:29;;;;;;;12.52;5.60;;;;;;;8.82;100.00;101928.34;5137017;27;20026;-84
2022/10/04 07:26:01;;;;;;;14.25;5.75;;;;;;;8.90;100.00;101925.63;5128735;27;20046;-85
2022/10/04 07:31:16;;;;;;;18.25;6.65;;;;;;;9.06;100.00;101934.66;5155832;27;20041;-84
2022/10/04 07:33:55;;;;;;;16.27;6.20;;;;;;;9.07;100.00;101925.50;5137050;27;20030;-84
2022/10/04 07:36:27;;;;;;;17.73;6.75;;;;;;;9.15;100.00;101928.16;5137130;27;20026;-84
2022/10/04 07:38:59;;;;;;;12.60;5.53;;;;;;;9.24;100.00;101929.81;5137388;27;20466;-85
2022/10/04 07:41:38;;;;;;;10.70;5.88;;;;;;;9.36;100.00;101943.75;5137027;27;20023;-85
2022/10/04 07:44:27;;;;;;;16.17;6.35;;;;;;;9.40;100.00;101945.06;5137002;27;20026;-84
2022/10/04 07:47:21;;;;;;;13.68;6.28;;;;;;;9.45;100.00;101939.97;5136621;27;20479;-84
2022/10/04 07:49:52;;;;;;;16.50;5.93;;;;;;;9.56;100.00;101948.69;5155555;27;20075;-85
2022/10/04 07:52:26;;;;;;;10.57;6.30;;;;;;;9.64;100.00;101944.03;5155595;27;20023;-84
2022/10/04 07:55:17;;;;;;;12.38;6.72;;;;;;;9.73;100.00;101946.66;5137595;27;20031;-85
2022/10/04 07:58:19;;;;;;;15.65;6.10;;;;;;;9.79;100.00;101933.25;5137323;27;20034;-84
2022/10/04 08:00:59;;;;;;;15.90;6.47;;;;;;;9.86;100.00;101933.31;5136864;27;20030;-85
2022/10/04 08:04:02;;;;;;;13.15;6.63;;;;;;;9.96;100.00;101938.50;5136902;27;20052;-85
2022/10/04 08:06:34;;;;;;;15.17;6.50;;;;;;;10.08;100.00;101930.75;5155728;27;20043;-85
2022/10/04 08:09:18;;;;;;;20.42;6.57;;;;;;;10.22;100.00;101931.81;5137675;27;20022;-84
2022/10/04 08:12:00;;;;;;;11.38;5.78;;;;;;;10.29;100.00;101935.44;5155304;27;20027;-85
2022/10/04 08:14:32;;;;;;;14.77;6.10;;;;;;;10.40;100.00;101920.59;5136739;27;20109;-85
2022/10/04 08:17:44;;;;;;;12.68;5.53;;;;;;;10.49;100.00;101914.03;5155442;27;20407;-85
2022/10/04 08:20:34;;;;;;;10.83;6.20;;;;;;;10.64;100.00;101917.56;5136642;27;20420;-85
2022/10/04 08:23:40;;;;;;;9.88;5.60;;;;;;;10.76;100.00;101920.63;5137618;27;20091;-85
2022/10/04 08:26:59;;;;;;;11.43;5.28;;;;;;;10.92;100.00;101919.56;5098384;27;20065;-85
2022/10/04 08:29:46;;;;;;;11.98;5.50;;;;;;;11.04;100.00;101928.91;5054153;28;20485;-85
2022/10/04 08:32:51;;;;;;;9.27;5.32;;;;;;;11.14;99.72;101923.16;5131576;27;20491;-85
2022/10/04 08:35:43;;;;;;;15.47;5.87;;;;;;;11.21;98.64;101924.06;5140499;27;20030;-85
2022/10/04 08:38:20;;;;;;;9.48;5.25;;;;;;;11.26;99.75;101922.66;5136747;27;20022;-85
2022/10/04 08:40:48;;;;;;;9.68;5.57;;;;;;;11.31;98.98;101925.63;5137366;27;20026;-85
2022/10/04 08:43:20;;;;;;;15.90;5.93;;;;;;;11.38;99.17;101931.97;5140035;27;20034;-84
2022/10/04 08:45:55;;;;;;;15.93;5.85;;;;;;;11.49;97.64;101922.47;5140271;27;20026;-85
2022/10/04 08:48:44;;;;;;;12.77;5.43;;;;;;;11.61;97.97;101922.78;5139734;27;20034;-85
2022/10/04 08:51:24;;;;;;;12.80;6.00;;;;;;;11.73;97.18;101927.47;5140974;27;20378;-85
2022/10/04 08:54:19;;;;;;;12.07;6.85;;;;;;;11.84;96.09;101928.81;5140484;27;20027;-85
2022/10/04 08:56:57;;;;;;;14.60;6.07;;;;;;;11.91;96.17;101918.84;5139884;27;20029;-85
2022/10/04 09:00:03;;;;;;;12.43;6.03;;;;;;;12.01;95.22;101921.22;5140555;27;20023;-85
2022/10/04 09:02:53;;;;;;;15.93;6.10;;;;;;;12.12;94.93;101922.56;5140346;27;20068;-84
2022/10/04 09:05:33;;;;;;;15.30;6.22;;;;;;;12.23;94.60;101918.44;5140526;27;20110;-85
2022/10/04 09:08:04;;;;;;;16.98;6.35;;;;;;;12.31;93.37;101923.69;5140364;27;20029;-84
2022/10/04 09:11:00;;;;;;;11.73;6.25;;;;;;;12.41;92.99;101928.78;5158601;27;20039;-85
2022/10/04 09:14:00;;;;;;;12.88;6.43;;;;;;;12.54;92.57;101930.75;5139471;27;20035;-85
2022/10/04 09:16:45;;;;;;;11.30;5.83;;;;;;;12.66;92.72;101929.13;5139162;27;20060;-85
2022/10/04 09:19:22;;;;;;;17.23;6.93;;;;;;;12.81;90.58;101932.53;5139962;27;20022;-85
2022/10/04 09:22:17;;;;;;;18.55;6.70;;;;;;;12.95;90.60;101935.31;5158449;27;20027;-85
2022/10/04 09:25:04;;;;;;;12.90;7.03;;;;;;;13.03;88.70;101924.22;5139980;27;20038;-85
2022/10/04 09:28:07;;;;;;;14.93;6.03;;;;;;;13.12;89.12;101919.41;5140126;27;20054;-84
2022/10/04 09:31:06;;;;;;;13.80;5.57;;;;;;;13.16;87.74;101916.06;5140127;27;20022;-85
2022/10/04 09:33:59;;;;;;;11.60;5.75;;;;;;;13.27;86.89;101913.78;5157735;27;20114;-85
2022/10/04 09:36:53;;;;;;;11.45;5.63;;;;;;;13.37;87.69;101907.97;5139351;27;20121;-85
2022/10/04 09:39:49;;;;;;;17.50;5.60;;;;;;;13.43;85.50;101904.41;5139614;27;20034;-85
2022/10/04 09:42:40;;;;;;;14.90;5.38;;;;;;;13.50;84.31;101900.63;5139821;27;20033;-85
2022/10/04 09:45:16;;;;;;;10.20;5.27;;;;;;;13.58;83.84;101898.75;5139412;27;20065;-85
2022/10/04 09:47:55;;;;;;;13.80;5.95;;;;;;;13.66;84.19;101902.09;5139168;27;20027;-85
2022/10/04 09:50:38;;;;;;;18.58;5.75;;;;;;;13.82;83.72;101897.28;5139703;27;20023;-85
2022/10/04 09:53:43;;;;;;;11.23;5.22;;;;;;;13.97;83.45;101907.97;5139413;27;20454;-85
2022/10/04 09:56:49;;;;;;;10.57;5.28;;;;;;;14.09;81.14;101908.16;5156588;27;20023;-93
2022/10/04 09:59:56;;;;;;;11.07;5.13;;;;;;;14.17;81.66;101906.03;5138956;27;20049;-87
2022/10/04 10:02:57;;;;;;;9.23;4.60;;;;;;;14.25;79.14;101909.59;5138984;27;20113;-86
2022/10/04 10:05:51;;;;;;;13.30;5.20;;;;;;;14.28;80.40;101906.44;5110803;27;20048;-84
2022/10/04 10:08:42;;;;;;;13.02;5.25;;;;;;;14.33;80.20;101898.41;5157135;27;20087;-84
2022/10/04 10:14:53;;;;;;;9.07;5.40;;;;;;;14.45;78.12;101906.78;5157706;27;20045;-86
2022/10/04 10:17:35;;;;;;;10.60;5.20;;;;;;;14.55;78.64;101897.06;5120195;27;20041;-85
2022/10/04 10:20:15;;;;;;;10.20;4.68;;;;;;;14.68;78.33;101889.91;5138658;27;20023;-84
2022/10/04 10:23:12;;;;;;;11.85;4.95;;;;;;;14.80;78.25;101890.91;5138733;27;20031;-84
2022/10/04 10:25:53;;;;;;;13.05;4.78;;;;;;;14.87;77.46;101874.47;5138066;27;20038;-84
2022/10/04 10:28:46;;;;;;;10.57;5.73;;;;;;;14.99;75.65;101877.34;5138194;27;20027;-85
2022/10/04 10:31:36;;;;;;;14.57;4.50;;;;;;;15.09;77.33;101875.78;5138238;27;20031;-84
2022/10/04 10:34:26;;;;;;;8.40;4.68;;;;;;;15.29;76.05;101872.06;5138949;27;20043;-85
2022/10/04 10:37:21;;;;;;;13.57;5.13;;;;;;;15.45;75.91;101873.44;5138439;27;20026;-84
2022/10/04 10:40:15;;;;;;;9.65;5.15;;;;;;;15.66;73.44;101876.84;5138750;27;20060;-86
2022/10/04 10:42:58;;;;;;;7.87;4.73;;;;;;;15.99;71.98;101884.75;5137866;27;20118;-85
2022/10/04 10:45:47;;;;;;;8.60;4.78;;;;;;;16.34;70.27;101878.66;5156577;27;20027;-85
2022/10/04 10:48:34;;;;;;;11.10;4.82;;;;;;;16.76;69.20;101876.03;5138355;27;20438;-85
2022/10/04 10:51:38;;;;;;;9.77;4.50;;;;;;;17.43;67.07;101880.53;5141632;27;20023;-85
2022/10/04 10:54:18;;;;;;;11.85;4.47;;;;;;;17.94;66.19;101886.44;5140504;27;20058;-84
2022/10/04 10:57:00;;;;;;;9.03;4.47;;;;;;;18.32;63.32;101892.47;5140958;27;20026;-84
2022/10/04 11:00:09;;;;;;;7.75;4.55;;;;;;;18.47;64.50;101889.22;5140248;27;20018;-88
2022/10/04 11:02:53;;;;;;;11.27;3.95;;;;;;;19.53;60.45;101874.13;5139420;27;20025;-85
2022/10/04 11:06:01;;;;;;;9.82;3.67;;;;;;;22.94;53.78;101858.47;5139928;27;20062;-84
2022/10/04 11:09:04;;;;;;;6.93;3.88;;;;;;;23.83;49.86;101865.66;5141116;27;20031;-85
2022/10/04 11:11:48;;;;;;;8.83;3.70;;;;;;;26.14;42.41;101854.09;5141508;27;20026;-84
2022/10/04 11:14:20;;;;;;;9.25;3.53;;;;;;;27.85;38.47;101848.38;5140296;27;20389;-85
2022/10/04 11:17:26;;;;;;;8.07;3.70;;;;;;;28.39;38.20;101847.84;5159106;27;20034;-84
2022/10/04 11:20:25;;;;;;;6.82;3.50;;;;;;;29.16;37.67;101837.72;5141115;27;20125;-86
2022/10/04 11:23:19;;;;;;;6.68;3.50;;;;;;;30.60;35.84;101830.88;5140500;27;20037;-84
2022/10/04 11:26:19;;;;;;;8.43;3.80;;;;;;;31.31;33.25;101833.31;5141026;27;20037;-87
2022/10/04 11:29:08;;;;;;;;;;;;;;;;;;;;;
2022/10/04 11:31:53;;;;;;;8.15;4.00;;;;;;;31.51;28.04;101818.88;5159840;27;20117;-84
2022/10/04 11:35:01;;;;;;;8.52;4.05;;;;;;;31.63;32.28;101828.28;5140492;27;20034;-84
2022/10/04 11:37:43;;;;;;;4.57;3.30;;;;;;;31.87;28.32;101818.44;5140999;27;20019;-86
2022/10/04 11:40:30;;;;;;;6.90;3.80;;;;;;;31.53;28.44;101819.41;5140852;27;20343;-85
2022/10/04 11:43:34;;;;;;;8.23;3.78;;;;;;;31.52;27.89;101810.16;5159871;27;20027;-88
2022/10/04 11:46:28;;;;;;;9.10;3.55;;;;;;;31.20;27.00;101806.78;5141937;27;20035;-95
2022/10/04 12:00:01;;;;;;;5.80;3.00;;;;;;;28.97;30.03;101785.63;5079060;28;20059;-94
2022/10/04 12:18:14;;;;;;;;;;;;;;;;;;;;;
2022/10/04 12:25:52;;;;;;;;;;;;;;;;;;;;;
2022/10/04 12:39:07;;;;;;;;;;;;;;;;;;;;;
2022/10/04 12:45:33;;;;;;;;;;;;;;;;;;;;;
2022/10/04 13:37:19;;;;;;;;;;;;;;;;;;;;;
2022/10/04 14:11:25;;;;;;;;;;;;;;;;;;;;;
2022/10/04 14:18:11;;;;;;;;;;;;;;;;;;;;;
2022/10/04 14:24:37;;;;;;;6.82;3.72;;;;;;;31.40;27.18;101627.78;4941173;29;20051;-96
2022/10/04 14:44:24;;;;;;;5.97;3.83;;;;;;;33.10;24.92;101609.53;5118401;28;20399;-92
2022/10/04 14:47:38;;;;;;;6.97;3.70;;;;;;;31.34;26.64;101601.94;5098377;28;20498;-96
2022/10/04 14:50:43;;;;;;;6.47;3.65;;;;;;;30.61;28.13;101608.53;5098345;28;20031;-89
2022/10/04 14:53:37;;;;;;;7.80;3.50;;;;;;;31.09;27.71;101604.56;5096183;28;20043;-85
2022/10/04 14:56:08;;;;;;;6.15;3.70;;;;;;;30.64;27.95;101610.66;5114847;28;20035;-85
2022/10/04 14:58:39;;;;;;;7.47;3.50;;;;;;;31.34;27.88;101610.34;5097082;28;20039;-85
2022/10/04 15:01:27;;;;;;;5.93;3.10;;;;;;;32.04;26.68;101607.03;5116271;28;20031;-85
2022/10/04 15:04:07;;;;;;;5.85;3.40;;;;;;;31.99;25.88;101604.44;5097376;28;20024;-85
2022/10/04 15:06:57;;;;;;;7.68;3.33;;;;;;;31.40;27.67;101605.38;5097623;28;20063;-85
2022/10/04 15:10:17;;;;;;;5.32;3.20;;;;;;;31.59;27.84;101605.75;5115081;28;20027;-85
2022/10/04 15:13:19;;;;;;;5.45;3.50;;;;;;;31.45;27.79;101608.78;5035350;28;20071;-85
2022/10/04 15:16:10;;;;;;;6.40;3.83;;;;;;;31.04;27.51;101613.16;5051852;28;20043;-85
2022/10/04 15:18:47;;;;;;;8.48;3.50;;;;;;;29.92;28.33;101624.22;5120960;27;20050;-85
2022/10/04 15:21:22;;;;;;;6.03;3.28;;;;;;;28.82;30.85;101622.09;5116614;27;20386;-85
2022/10/04 15:24:10;;;;;;;6.80;3.15;;;;;;;28.12;31.86;101626.38;5135366;27;20031;-85
2022/10/04 15:26:59;;;;;;;6.53;3.60;;;;;;;26.34;34.70;101634.09;5116236;27;20372;-85
2022/10/04 15:29:44;;;;;;;6.00;3.33;;;;;;;24.81;37.84;101627.44;5135603;27;20047;-84
2022/10/04 15:32:40;;;;;;;5.72;3.30;;;;;;;24.00;39.68;101618.66;5135153;27;20405;-85
2022/10/04 15:35:31;;;;;;;6.22;3.17;;;;;;;23.28;41.52;101622.63;5127073;27;20046;-85
2022/10/04 15:38:18;;;;;;;5.28;3.08;;;;;;;22.89;42.50;101627.97;5135251;27;20038;-85
2022/10/04 15:41:00;;;;;;;6.20;2.90;;;;;;;22.72;43.07;101633.78;5116176;27;20031;-85
2022/10/04 15:43:29;;;;;;;5.00;3.00;;;;;;;22.85;43.96;101632.41;5116680;27;20356;-86
2022/10/04 15:45:54;;;;;;;7.15;3.05;;;;;;;22.88;43.31;101631.84;5116245;27;20061;-86
2022/10/04 15:48:29;;;;;;;7.43;3.20;;;;;;;22.55;44.34;101618.31;5116670;27;20063;-85
2022/10/04 15:51:16;;;;;;;7.10;3.30;;;;;;;22.38;43.96;101617.78;5116679;28;20325;-85
2022/10/04 15:53:57;;;;;;;7.70;3.13;;;;;;;22.00;45.75;101622.72;5133642;27;20030;-86
2022/10/04 15:56:32;;;;;;;4.93;3.08;;;;;;;21.61;47.26;101629.50;5116121;27;20050;-85